Weather at Pitu Airport

Public forecast

Using degrees Celsius for public forecast. Weather courtesy of forecast.io.

Closest aviation weather report (METAR) to Pitu Airport

Closest report is Sam Ratulangi Airport, 206.1 nm (381.8 km) W.

2024/05/20 18:30 (retrieved 20 minutes ago)

WAMM 201830Z VRB02KT 9999 FEW021 25/23 Q1008 NOSIG

Closest aviation forecast (TAF) to Pitu Airport

Closest forecast is Sam Ratulangi Airport, 206.1 nm (381.8 km) W.

2024/05/20 18:03 (retrieved 47 minutes ago)

TAF WAMM 201700Z 2018/2124 VRB02KT 9999 SCT020 BECMG 2100/2112 34010KT